createdAt,value
2018-02-10T00:00:23.611Z,0.06
2018-02-10T00:02:51.976Z,0.07
2018-02-10T00:05:20.292Z,0.11
2018-02-10T00:07:48.661Z,0.11
2018-02-10T00:10:17.004Z,-0.05
2018-02-10T00:12:45.392Z,-0.13
2018-02-10T00:15:13.748Z,-0.17
2018-02-10T00:17:42.863Z,-0.27
2018-02-10T00:20:11.184Z,-0.26
2018-02-10T00:22:39.569Z,-0.25
2018-02-10T00:25:07.932Z,-0.25
2018-02-10T00:27:37.064Z,-0.29
2018-02-10T00:30:06.206Z,-0.30
2018-02-10T00:32:34.532Z,-0.35
2018-02-10T00:35:04.096Z,-0.42
2018-02-10T00:37:32.488Z,-0.51
2018-02-10T00:40:00.820Z,-0.62
2018-02-10T00:42:29.191Z,-0.65
2018-02-10T00:44:57.551Z,-0.71
2018-02-10T00:47:26.657Z,-0.73
2018-02-10T00:49:55.000Z,-0.64
2018-02-10T00:52:23.338Z,-0.58
2018-02-10T00:54:51.716Z,-0.54
2018-02-10T00:57:20.044Z,-0.53
2018-02-10T00:59:49.227Z,-0.49
2018-02-10T01:02:17.611Z,-0.44
2018-02-10T01:04:45.961Z,-0.49
2018-02-10T01:07:14.310Z,-0.52
2018-02-10T01:09:42.680Z,-0.52
2018-02-10T01:12:11.008Z,-0.48
2018-02-10T01:14:39.378Z,-0.46
2018-02-10T01:17:07.695Z,-0.45
2018-02-10T01:19:36.806Z,-0.46
2018-02-10T01:22:05.923Z,-0.49
2018-02-10T01:24:34.250Z,-0.45
2018-02-10T01:27:02.617Z,-0.34
2018-02-10T01:29:30.938Z,-0.33
2018-02-10T01:31:59.312Z,-0.40
2018-02-10T01:34:27.640Z,-0.39
2018-02-10T01:36:56.011Z,-0.39
2018-02-10T01:39:24.334Z,-0.36
2018-02-10T01:41:52.663Z,-0.49
2018-02-10T01:44:21.028Z,-0.45
2018-02-10T01:46:49.342Z,-0.41
2018-02-10T01:49:17.711Z,-0.44
2018-02-10T01:51:46.035Z,-0.43
2018-02-10T01:54:14.402Z,-0.52
2018-02-10T01:56:43.517Z,-0.63
2018-02-10T01:59:11.875Z,-0.69
2018-02-10T02:01:40.977Z,-0.74
2018-02-10T02:04:09.347Z,-0.79
2018-02-10T02:06:38.436Z,-0.80
2018-02-10T02:09:06.789Z,-0.83
2018-02-10T02:11:35.157Z,-0.80
2018-02-10T02:14:03.485Z,-0.82
2018-02-10T02:16:31.857Z,-0.86
2018-02-10T02:19:00.188Z,-0.89
2018-02-10T02:21:28.553Z,-0.89
2018-02-10T02:23:57.059Z,-0.97
2018-02-10T02:26:26.174Z,-0.96
2018-02-10T02:28:54.554Z,-0.97
2018-02-10T02:31:22.878Z,-1.00
2018-02-10T02:33:51.205Z,-0.97
2018-02-10T02:36:19.577Z,-0.95
2018-02-10T02:38:48.711Z,-0.98
2018-02-10T02:41:17.040Z,-1.05
2018-02-10T02:43:45.405Z,-1.07
2018-02-10T02:46:13.742Z,-1.13
2018-02-10T02:48:42.065Z,-1.15
2018-02-10T02:51:10.426Z,-1.17
2018-02-10T02:53:38.736Z,-1.23
2018-02-10T02:56:07.101Z,-1.28
2018-02-10T02:58:35.509Z,-1.31
2018-02-10T03:01:04.602Z,-1.33
2018-02-10T03:03:33.726Z,-1.36
2018-02-10T03:06:02.114Z,-1.44
2018-02-10T03:08:30.472Z,-1.52
2018-02-10T03:10:58.834Z,-1.50
2018-02-10T03:13:27.916Z,-1.56
2018-02-10T03:15:57.044Z,-1.70
2018-02-10T03:18:25.409Z,-1.83
2018-02-10T03:20:54.532Z,-1.92
2018-02-10T03:23:22.862Z,-1.95
2018-02-10T03:25:51.958Z,-2.01
2018-02-10T03:28:20.300Z,-2.09
2018-02-10T03:30:48.643Z,-2.19
2018-02-10T03:33:17.000Z,-2.26
2018-02-10T03:35:46.098Z,-2.30
2018-02-10T03:38:15.226Z,-2.35
2018-02-10T03:40:43.606Z,-2.43
2018-02-10T03:43:11.928Z,-2.55
2018-02-10T03:45:41.041Z,-2.65
2018-02-10T03:48:10.174Z,-2.68
2018-02-10T03:50:38.513Z,-2.73
2018-02-10T03:53:07.635Z,-2.81
2018-02-10T03:55:35.990Z,-2.90
2018-02-10T03:58:05.121Z,-2.93
2018-02-10T04:00:33.459Z,-2.94
2018-02-10T04:03:02.638Z,-2.95
2018-02-10T04:05:30.981Z,-2.96
2018-02-10T04:07:59.353Z,-2.99
2018-02-10T04:10:27.693Z,-3.01
2018-02-10T04:12:56.028Z,-3.06
2018-02-10T04:15:24.397Z,-3.09
2018-02-10T04:17:52.843Z,-3.11
2018-02-10T04:20:21.192Z,-3.15
2018-02-10T04:22:49.571Z,-3.21
2018-02-10T04:25:17.895Z,-3.21
2018-02-10T04:27:46.233Z,-3.24
2018-02-10T04:30:15.415Z,-3.24
2018-02-10T04:32:43.741Z,-3.25
2018-02-10T04:35:12.081Z,-3.30
2018-02-10T04:37:41.217Z,-3.37
2018-02-10T04:40:09.534Z,-3.38
2018-02-10T04:42:37.901Z,-3.35
2018-02-10T04:45:06.253Z,-3.35
2018-02-10T04:47:34.613Z,-3.37
2018-02-10T04:50:02.941Z,-3.42
2018-02-10T04:52:31.271Z,-3.42
2018-02-10T04:54:59.689Z,-3.28
2018-02-10T04:57:28.016Z,-3.26
2018-02-10T04:59:57.130Z,-3.27
2018-02-10T05:02:25.457Z,-3.27
2018-02-10T05:04:53.821Z,-3.24
2018-02-10T05:07:22.161Z,-3.06
2018-02-10T05:09:50.477Z,-2.84
2018-02-10T05:12:18.846Z,-2.63
2018-02-10T05:14:47.191Z,-2.69
2018-02-10T05:17:15.518Z,-2.55
2018-02-10T05:19:43.870Z,-2.44
2018-02-10T05:22:12.203Z,-2.38
2018-02-10T05:24:41.321Z,-2.22
2018-02-10T05:27:09.663Z,-2.09
2018-02-10T05:29:38.797Z,-2.06
2018-02-10T05:32:07.143Z,-1.96
2018-02-10T05:34:35.505Z,-1.88
2018-02-10T05:37:04.619Z,-1.78
2018-02-10T05:39:32.990Z,-1.79
2018-02-10T05:42:02.126Z,-1.87
2018-02-10T05:44:30.473Z,-1.77
2018-02-10T05:46:58.815Z,-1.62
2018-02-10T05:49:27.164Z,-1.57
2018-02-10T05:51:55.543Z,-1.62
2018-02-10T05:54:23.878Z,-1.60
2018-02-10T05:56:53.010Z,-1.51
2018-02-10T05:59:21.335Z,-1.49
2018-02-10T06:01:50.428Z,-1.51
2018-02-10T06:04:18.813Z,-1.46
2018-02-10T06:06:47.921Z,-1.43
2018-02-10T06:09:17.053Z,-1.40
2018-02-10T06:11:45.429Z,-1.56
2018-02-10T06:14:13.763Z,-1.49
2018-02-10T06:16:42.906Z,-1.42
2018-02-10T06:19:11.252Z,-1.35
2018-02-10T06:21:39.567Z,-1.27
2018-02-10T06:24:07.929Z,-1.20
2018-02-10T06:26:36.305Z,-1.12
2018-02-10T06:29:07.861Z,-1.06
2018-02-10T06:31:36.237Z,-1.00
2018-02-10T06:34:04.595Z,-0.96
2018-02-10T06:36:33.734Z,-1.06
2018-02-10T06:39:02.116Z,-0.99
2018-02-10T06:41:30.426Z,-0.88
2018-02-10T06:43:59.554Z,-0.85
2018-02-10T06:46:27.977Z,-0.82
2018-02-10T06:48:56.431Z,-0.80
2018-02-10T06:51:24.769Z,-0.87
2018-02-10T06:53:53.898Z,-0.79
2018-02-10T06:56:22.217Z,-0.77
2018-02-10T06:58:50.552Z,-0.84
2018-02-10T07:01:18.866Z,-0.76
2018-02-10T07:03:47.249Z,-0.65
2018-02-10T07:06:16.008Z,-0.48
2018-02-10T07:08:44.413Z,-0.47
2018-02-10T07:11:12.768Z,-0.33
2018-02-10T07:13:41.127Z,-0.37
2018-02-10T07:16:09.467Z,-0.27
2018-02-10T07:18:37.789Z,-0.27
2018-02-10T07:21:06.161Z,-0.22
2018-02-10T07:23:34.518Z,-0.09
2018-02-10T07:26:02.879Z,0.05
2018-02-10T07:28:32.027Z,0.16
2018-02-10T07:31:01.391Z,0.18
2018-02-10T07:33:31.264Z,0.16
2018-02-10T07:35:59.571Z,0.11
2018-02-10T07:38:28.639Z,0.22
2018-02-10T07:40:56.983Z,0.28
2018-02-10T07:43:26.133Z,0.34
2018-02-10T07:45:55.216Z,0.30
2018-02-10T07:48:23.890Z,0.27
2018-02-10T07:50:52.252Z,0.43
2018-02-10T07:53:20.636Z,0.41
2018-02-10T07:55:49.061Z,0.55
2018-02-10T07:58:18.159Z,0.64
2018-02-10T08:00:46.474Z,0.74
2018-02-10T08:03:14.840Z,0.75
2018-02-10T08:05:44.646Z,0.77
2018-02-10T08:08:12.996Z,0.68
2018-02-10T08:10:42.094Z,0.74
2018-02-10T08:13:11.226Z,0.78
2018-02-10T08:15:39.548Z,0.78
2018-02-10T08:18:07.904Z,0.79
2018-02-10T08:20:36.264Z,0.84
2018-02-10T08:23:04.626Z,0.98
2018-02-10T08:25:32.988Z,0.77
2018-02-10T08:28:01.363Z,0.78
2018-02-10T08:30:29.760Z,0.75
2018-02-10T08:32:58.923Z,0.77
2018-02-10T08:35:28.024Z,1.03
2018-02-10T08:37:56.357Z,1.26
2018-02-10T08:40:24.742Z,1.36
2018-02-10T08:42:53.056Z,1.54
2018-02-10T08:45:22.174Z,1.70
2018-02-10T08:47:50.497Z,1.75
2018-02-10T08:50:18.856Z,1.79
2018-02-10T08:52:47.242Z,1.88
2018-02-10T08:55:15.628Z,1.94
2018-02-10T08:57:43.996Z,2.02
2018-02-10T09:00:12.351Z,2.01
2018-02-10T09:02:40.686Z,2.07
2018-02-10T09:05:09.770Z,2.13
2018-02-10T09:07:38.887Z,2.21
2018-02-10T09:10:07.272Z,2.30
2018-02-10T09:12:35.611Z,2.37
2018-02-10T09:15:03.957Z,2.43
2018-02-10T09:17:32.290Z,2.52
2018-02-10T09:20:01.401Z,2.68
2018-02-10T09:22:29.753Z,2.80
2018-02-10T09:24:58.840Z,2.67
2018-02-10T09:27:27.188Z,2.73
2018-02-10T09:29:55.511Z,2.87
2018-02-10T09:32:24.587Z,2.91
2018-02-10T09:34:52.906Z,2.85
2018-02-10T09:37:21.265Z,3.07
2018-02-10T09:39:50.356Z,3.13
2018-02-10T09:42:19.457Z,3.22
2018-02-10T09:44:48.591Z,3.34
2018-02-10T09:47:17.702Z,3.51
2018-02-10T09:49:46.059Z,3.70
2018-02-10T09:52:14.381Z,3.87
2018-02-10T09:54:42.762Z,3.93
2018-02-10T09:57:11.161Z,4.01
2018-02-10T09:59:40.237Z,4.21
2018-02-10T10:02:08.579Z,4.40
2018-02-10T10:04:36.940Z,4.44
2018-02-10T10:07:05.309Z,4.26
2018-02-10T10:09:33.638Z,4.30
2018-02-10T10:12:02.000Z,4.52
2018-02-10T10:14:30.301Z,4.38
2018-02-10T10:16:58.679Z,4.23
2018-02-10T10:19:26.999Z,4.23
2018-02-10T10:21:55.357Z,4.65
2018-02-10T10:24:24.477Z,4.40
2018-02-10T10:26:52.793Z,4.31
2018-02-10T10:29:21.105Z,4.61
2018-02-10T10:31:50.235Z,4.69
2018-02-10T10:34:18.543Z,4.65
2018-02-10T10:36:46.874Z,4.44
2018-02-10T10:39:15.276Z,4.40
2018-02-10T10:41:43.600Z,4.83
2018-02-10T10:44:12.713Z,5.19
2018-02-10T10:46:41.024Z,5.07
2018-02-10T10:49:09.367Z,5.16
2018-02-10T10:51:37.683Z,5.06
2018-02-10T10:54:06.039Z,5.00
2018-02-10T10:56:34.346Z,5.31
2018-02-10T10:59:02.718Z,5.03
2018-02-10T11:01:31.170Z,4.60
2018-02-10T11:03:59.492Z,5.03
2018-02-10T11:06:27.811Z,4.90
2018-02-10T11:08:56.171Z,4.97
2018-02-10T11:11:25.900Z,5.17
2018-02-10T11:13:54.272Z,5.31
2018-02-10T11:16:22.612Z,4.77
2018-02-10T11:18:50.970Z,5.17
2018-02-10T11:21:19.277Z,4.97
2018-02-10T11:23:47.598Z,4.63
2018-02-10T11:26:15.939Z,5.10
2018-02-10T11:28:45.032Z,5.22
2018-02-10T11:31:14.136Z,4.54
2018-02-10T11:33:42.469Z,4.70
2018-02-10T11:36:10.824Z,4.52
2018-02-10T11:38:39.204Z,4.27
2018-02-10T11:41:07.558Z,4.74
2018-02-10T11:43:35.885Z,4.36
2018-02-10T11:46:04.211Z,4.21
2018-02-10T11:48:32.576Z,4.23
2018-02-10T11:51:01.656Z,4.67
2018-02-10T11:53:30.012Z,4.13
2018-02-10T11:55:58.628Z,4.39
2018-02-10T11:58:26.961Z,4.25
2018-02-10T12:00:55.275Z,4.59
2018-02-10T12:03:23.614Z,4.78
2018-02-10T12:05:51.946Z,4.44
2018-02-10T12:08:20.282Z,4.42
2018-02-10T12:10:48.668Z,4.55
2018-02-10T12:13:17.013Z,4.88
2018-02-10T12:15:45.326Z,4.84
2018-02-10T12:18:13.661Z,4.50
2018-02-10T12:20:42.546Z,4.44
2018-02-10T12:23:10.948Z,4.81
2018-02-10T12:25:39.352Z,5.02
2018-02-10T12:28:07.682Z,5.27
2018-02-10T12:30:36.414Z,5.20
2018-02-10T12:33:05.531Z,4.89
2018-02-10T12:35:35.402Z,4.96
2018-02-10T12:38:03.763Z,4.61
2018-02-10T12:40:32.125Z,4.99
2018-02-10T12:43:01.220Z,4.97
2018-02-10T12:45:29.597Z,5.29
2018-02-10T12:48:00.034Z,5.12
2018-02-10T12:50:28.376Z,4.85
2018-02-10T12:52:57.497Z,4.46
2018-02-10T12:55:25.834Z,4.92
2018-02-10T12:57:54.209Z,5.14
2018-02-10T13:00:22.530Z,5.05
2018-02-10T13:02:50.892Z,4.68
2018-02-10T13:05:19.978Z,4.55
2018-02-10T13:07:49.094Z,4.71
2018-02-10T13:10:17.422Z,5.01
2018-02-10T13:12:45.779Z,5.03
2018-02-10T13:15:14.856Z,5.20
2018-02-10T13:17:44.085Z,5.04
2018-02-10T13:20:12.423Z,4.79
2018-02-10T13:22:40.742Z,5.23
2018-02-10T13:25:09.161Z,5.19
2018-02-10T13:27:38.275Z,5.12
2018-02-10T13:30:07.086Z,5.18
2018-02-10T13:32:35.453Z,5.12
2018-02-10T13:35:03.789Z,4.64
2018-02-10T13:37:32.946Z,4.83
2018-02-10T13:40:02.149Z,4.63
2018-02-10T13:42:30.505Z,4.94
2018-02-10T13:44:59.620Z,5.16
2018-02-10T13:47:28.006Z,5.19
2018-02-10T13:49:56.346Z,5.19
2018-02-10T13:52:25.441Z,4.98
2018-02-10T13:54:53.825Z,4.91
2018-02-10T13:57:22.161Z,5.12
2018-02-10T13:59:51.265Z,5.09
2018-02-10T14:02:20.389Z,5.02
2018-02-10T14:04:48.733Z,4.98
2018-02-10T14:07:17.826Z,5.12
2018-02-10T14:09:46.953Z,4.89
2018-02-10T14:12:15.339Z,4.59
2018-02-10T14:14:43.798Z,4.57
2018-02-10T14:17:12.111Z,4.73
2018-02-10T14:19:40.473Z,4.59
2018-02-10T14:22:08.807Z,4.57
2018-02-10T14:24:37.149Z,4.19
2018-02-10T14:27:05.516Z,4.11
2018-02-10T14:29:33.851Z,4.40
2018-02-10T14:32:02.968Z,4.17
2018-02-10T14:34:31.310Z,3.93
2018-02-10T14:36:59.680Z,3.81
2018-02-10T14:39:28.013Z,3.95
2018-02-10T14:41:56.341Z,3.94
2018-02-10T14:44:24.706Z,3.87
2018-02-10T14:46:53.016Z,3.68
2018-02-10T14:49:21.335Z,3.72
2018-02-10T14:51:49.693Z,3.89
2018-02-10T14:54:18.020Z,3.81
2018-02-10T14:56:46.420Z,3.62
2018-02-10T14:59:15.512Z,3.57
2018-02-10T15:01:44.618Z,3.52
2018-02-10T15:04:13.811Z,3.61
2018-02-10T15:06:42.936Z,3.78
2018-02-10T15:09:11.255Z,3.75
2018-02-10T15:11:39.573Z,3.80
2018-02-10T15:14:07.919Z,3.84
2018-02-10T15:16:36.237Z,3.71
2018-02-10T15:19:05.343Z,3.68
2018-02-10T15:21:34.558Z,3.76
2018-02-10T15:24:02.924Z,3.50
2018-02-10T15:26:31.272Z,3.19
2018-02-10T15:28:59.628Z,3.20
2018-02-10T15:31:45.644Z,3.23
2018-02-10T15:34:31.665Z,3.11
2018-02-10T15:36:59.975Z,3.24
2018-02-10T15:39:28.981Z,3.31
2018-02-10T15:41:58.076Z,3.14
2018-02-10T15:44:26.429Z,3.05
2018-02-10T15:46:54.852Z,2.95
2018-02-10T15:49:23.309Z,2.93
2018-02-10T15:51:51.632Z,3.02
2018-02-10T15:54:20.531Z,3.00
2018-02-10T15:56:49.636Z,2.92
2018-02-10T15:59:17.954Z,2.86
2018-02-10T16:01:46.287Z,2.79
2018-02-10T16:04:14.647Z,2.76
2018-02-10T16:06:42.988Z,2.78
2018-02-10T16:09:12.087Z,2.73
2018-02-10T16:11:41.764Z,2.72
2018-02-10T16:14:10.140Z,2.74
2018-02-10T16:16:38.518Z,2.78
2018-02-10T16:19:06.988Z,2.72
2018-02-10T16:21:36.688Z,2.68
2018-02-10T16:24:05.062Z,2.71
2018-02-10T16:26:33.480Z,2.70
2018-02-10T16:29:01.815Z,2.65
2018-02-10T16:31:30.180Z,2.70
2018-02-10T16:33:59.319Z,2.66
2018-02-10T16:36:27.641Z,2.65
2018-02-10T16:38:56.080Z,2.63
2018-02-10T16:41:26.653Z,2.52
2018-02-10T16:43:55.001Z,2.69
2018-02-10T16:46:23.407Z,2.75
2018-02-10T16:48:51.744Z,2.77
2018-02-10T16:51:22.149Z,2.78
2018-02-10T16:53:50.467Z,2.77
2018-02-10T16:56:20.112Z,2.73
2018-02-10T16:58:49.119Z,2.72
2018-02-10T17:01:17.472Z,2.68
2018-02-10T17:03:47.544Z,2.62
2018-02-10T17:06:16.972Z,2.52
2018-02-10T17:08:45.382Z,2.50
2018-02-10T17:11:14.692Z,2.44
2018-02-10T17:13:43.024Z,2.30
2018-02-10T17:16:12.139Z,2.19
2018-02-10T17:18:40.440Z,2.12
2018-02-10T17:21:09.440Z,2.10
2018-02-10T17:23:37.762Z,2.09
2018-02-10T17:26:06.136Z,2.10
2018-02-10T17:28:35.216Z,2.09
2018-02-10T17:31:04.144Z,2.05
2018-02-10T17:33:34.141Z,2.00
2018-02-10T17:36:04.011Z,1.95
2018-02-10T17:38:33.282Z,1.87
2018-02-10T17:41:01.658Z,1.81
2018-02-10T17:43:30.808Z,1.80
2018-02-10T17:45:59.441Z,1.78
2018-02-10T17:48:29.042Z,1.76
2018-02-10T17:50:57.420Z,1.79
2018-02-10T17:53:25.786Z,1.83
2018-02-10T17:55:54.166Z,1.88
2018-02-10T17:58:24.750Z,1.93
2018-02-10T18:00:53.110Z,1.93
2018-02-10T18:03:21.456Z,1.90
2018-02-10T18:05:50.609Z,1.85
2018-02-10T18:08:18.955Z,1.84
2018-02-10T18:10:48.000Z,1.86
2018-02-10T18:13:17.234Z,1.84
2018-02-10T18:15:45.595Z,1.86
2018-02-10T18:18:14.704Z,1.90
2018-02-10T18:20:43.821Z,1.92
2018-02-10T18:23:12.169Z,1.95
2018-02-10T18:25:40.600Z,1.96
2018-02-10T18:28:08.920Z,1.93
2018-02-10T18:30:38.034Z,1.96
2018-02-10T18:33:06.401Z,2.01
2018-02-10T18:35:34.792Z,2.05
2018-02-10T18:38:03.172Z,2.12
2018-02-10T18:40:32.324Z,2.11
2018-02-10T18:43:00.718Z,2.09
2018-02-10T18:45:29.813Z,2.13
2018-02-10T18:47:59.014Z,2.05
2018-02-10T18:50:28.110Z,1.98
2018-02-10T18:52:56.505Z,1.95
2018-02-10T18:55:25.813Z,1.91
2018-02-10T18:57:55.289Z,1.90
2018-02-10T19:00:25.455Z,1.94
2018-02-10T19:02:53.824Z,1.96
2018-02-10T19:05:22.222Z,2.05
2018-02-10T19:07:51.196Z,2.04
2018-02-10T19:10:19.543Z,2.02
2018-02-10T19:12:49.707Z,2.03
2018-02-10T19:15:19.761Z,1.99
2018-02-10T19:17:48.889Z,1.98
2018-02-10T19:20:17.240Z,1.97
2018-02-10T19:22:46.884Z,1.98
2018-02-10T19:25:16.763Z,1.95
2018-02-10T19:27:47.721Z,2.00
2018-02-10T19:30:16.867Z,2.01
2018-02-10T19:32:46.424Z,2.03
2018-02-10T19:35:15.913Z,2.02
2018-02-10T19:37:45.001Z,2.03
2018-02-10T19:40:14.131Z,2.02
2018-02-10T19:42:42.643Z,2.05
2018-02-10T19:45:11.945Z,1.99
2018-02-10T19:47:40.272Z,2.02
2018-02-10T19:50:09.411Z,2.10
2018-02-10T19:52:37.774Z,2.16
2018-02-10T19:55:06.869Z,2.20
2018-02-10T19:57:36.617Z,2.08
2018-02-10T20:00:05.817Z,2.08
2018-02-10T20:02:34.194Z,2.11
2018-02-10T20:05:02.562Z,2.09
2018-02-10T20:07:31.210Z,2.13
2018-02-10T20:10:00.403Z,2.14
2018-02-10T20:12:28.789Z,2.17
2018-02-10T20:14:57.160Z,2.17
2018-02-10T20:17:25.522Z,2.17
2018-02-10T20:19:54.651Z,2.16
2018-02-10T20:22:23.315Z,2.15
2018-02-10T20:24:51.662Z,2.24
2018-02-10T20:27:21.602Z,2.20
2018-02-10T20:29:51.738Z,2.08
2018-02-10T20:32:20.966Z,2.15
2018-02-10T20:34:49.319Z,2.20
2018-02-10T20:37:17.693Z,2.25
2018-02-10T20:39:46.019Z,2.21
2018-02-10T20:42:14.388Z,2.19
2018-02-10T20:44:43.507Z,2.24
2018-02-10T20:47:13.314Z,2.25
2018-02-10T20:49:42.424Z,2.22
2018-02-10T20:52:10.813Z,2.21
2018-02-10T20:54:39.231Z,2.22
2018-02-10T20:57:07.598Z,2.19
2018-02-10T20:59:36.654Z,2.20
2018-02-10T21:02:04.986Z,2.21
2018-02-10T21:04:34.543Z,2.23
2018-02-10T21:07:02.879Z,2.20
2018-02-10T21:09:31.311Z,2.17
2018-02-10T21:11:59.737Z,2.14
2018-02-10T21:14:28.771Z,2.12
2018-02-10T21:16:57.088Z,2.16
2018-02-10T21:19:25.476Z,2.14
2018-02-10T21:21:54.620Z,2.13
2018-02-10T21:24:23.033Z,2.12
2018-02-10T21:26:51.358Z,2.13
2018-02-10T21:29:21.873Z,2.12
2018-02-10T21:31:50.181Z,2.09
2018-02-10T21:34:18.539Z,2.14
2018-02-10T21:36:47.702Z,2.03
2018-02-10T21:39:16.113Z,1.96
2018-02-10T21:41:45.262Z,1.92
2018-02-10T21:44:13.689Z,1.79
2018-02-10T21:46:42.835Z,1.67
2018-02-10T21:49:11.678Z,1.60
2018-02-10T21:51:40.838Z,1.61
2018-02-10T21:54:09.201Z,1.57
2018-02-10T21:56:37.590Z,1.59
2018-02-10T21:59:05.917Z,1.60
2018-02-10T22:01:34.281Z,1.65
2018-02-10T22:04:03.391Z,1.70
2018-02-10T22:06:32.519Z,1.73
2018-02-10T22:09:00.866Z,1.77
2018-02-10T22:11:30.010Z,1.78
2018-02-10T22:13:58.397Z,1.77
2018-02-10T22:16:26.821Z,1.80
2018-02-10T22:18:55.951Z,1.81
2018-02-10T22:21:25.061Z,1.82
2018-02-10T22:23:53.409Z,1.90
2018-02-10T22:26:21.821Z,1.93
2018-02-10T22:28:50.178Z,1.92
2018-02-10T22:31:18.500Z,1.91
2018-02-10T22:33:47.690Z,1.94
2018-02-10T22:36:16.946Z,2.01
2018-02-10T22:38:46.110Z,2.02
2018-02-10T22:41:14.429Z,1.96
2018-02-10T22:43:42.893Z,2.05
2018-02-10T22:46:11.253Z,2.05
2018-02-10T22:48:40.342Z,2.05
2018-02-10T22:51:10.661Z,2.12
2018-02-10T22:53:39.752Z,2.09
2018-02-10T22:56:09.771Z,2.09
2018-02-10T22:58:38.146Z,2.08
2018-02-10T23:01:12.747Z,2.18
2018-02-10T23:03:41.076Z,2.23
2018-02-10T23:06:09.423Z,2.21
2018-02-10T23:08:38.516Z,2.22
2018-02-10T23:11:07.622Z,2.22
2018-02-10T23:13:36.735Z,2.21
2018-02-10T23:16:05.061Z,2.24
2018-02-10T23:18:33.380Z,2.26
2018-02-10T23:21:01.735Z,2.29
2018-02-10T23:23:30.090Z,2.23
2018-02-10T23:25:59.202Z,2.27
2018-02-10T23:28:28.552Z,2.23
2018-02-10T23:30:56.901Z,2.27
2018-02-10T23:33:25.980Z,2.28
2018-02-10T23:35:54.328Z,2.24
2018-02-10T23:38:22.646Z,2.24
2018-02-10T23:40:51.016Z,2.24
2018-02-10T23:43:20.114Z,2.28
2018-02-10T23:45:49.236Z,2.24
2018-02-10T23:48:17.554Z,2.23
2018-02-10T23:50:46.266Z,2.24
2018-02-10T23:53:14.612Z,2.25
2018-02-10T23:55:42.924Z,2.23
2018-02-10T23:58:11.300Z,2.22
